Terminal Aerodrome Forecast
Issued by NWS Green Bay, WI

Home | Current Version | Previous Version | Graphics & Text | Print | Product List | Glossary Off
Versions: 1 2 3 4 5 6 7 8 9 10 11 12 13 14 15 16 17 18 19 20 21 22 23 24 25 26 27 28 29 30 31 32 33 34 35 36 37 38 39 40 41 42 43 44 45 46 47 48 49 50

000
FTUS43 KGRB 181126
TAFGRB
TAF
KGRB 181126Z 1812/1912 29011G15KT P6SM SCT020 SCT090
      TEMPO 1812/1816 SCT015 BKN020
     FM181600 30012G20KT P6SM SCT020 BKN035
     FM182100 29011KT P6SM SCT040 BKN120
     FM190000 29006KT P6SM SCT100
     FM190800 27004KT 4SM BR SKC=

USA.gov is the U.S. government's official web portal to all federal, state and local government web resources and services.